Time;durP1;ratioP1;P1;durP2;ratioP2;P2;SDS_P1;SDS_P2;PMS_P1;PMS_P2;Temp;Humidity;BMP_temperature;BMP_pressure;BME280_temperature;BME280_humidity;BME280_pressure;Samples;Min_cycle;Max_cycle;Signal;HPM_P1;HPM_P2
2023/07/03 00:03:22;;;;;;;8.53;5.03;;;;;;;18.78;89.98;96502.03;5046933;28;20205;-76
2023/07/03 00:06:45;;;;;;;10.07;6.03;;;;;;;18.80;89.42;96505.34;5047467;28;20236;-78
2023/07/03 00:10:06;;;;;;;7.90;5.43;;;;;;;18.78;89.63;96496.78;5032281;28;20234;-79
2023/07/03 00:13:26;;;;;;;9.93;5.60;;;;;;;18.82;89.01;96510.47;5066068;28;20204;-80
2023/07/03 00:16:47;;;;;;;11.17;6.17;;;;;;;18.72;89.59;96515.69;5034670;28;20586;-78
2023/07/03 00:20:13;;;;;;;12.23;6.27;;;;;;;18.57;91.05;96506.50;5066912;28;20703;-75
2023/07/03 00:23:49;;;;;;;11.20;6.70;;;;;;;18.56;90.95;96520.59;5066791;28;20204;-76
2023/07/03 00:27:10;;;;;;;10.90;7.43;;;;;;;18.44;92.13;96505.91;5050511;28;20197;-79
2023/07/03 00:30:30;;;;;;;13.70;7.50;;;;;;;18.59;91.70;96509.84;5047785;28;21464;-75
2023/07/03 00:33:54;;;;;;;13.73;7.87;;;;;;;18.52;91.52;96516.59;5031522;28;20214;-76
2023/07/03 00:37:15;;;;;;;12.13;7.40;;;;;;;18.65;90.67;96517.16;5066716;28;20240;-78
2023/07/03 00:40:36;;;;;;;9.87;7.60;;;;;;;18.55;91.18;96511.91;5048239;28;20386;-75
2023/07/03 00:44:00;;;;;;;12.07;7.63;;;;;;;18.61;90.56;96510.53;5069405;28;20274;-79
2023/07/03 00:47:21;;;;;;;10.80;7.10;;;;;;;18.66;90.46;96511.81;5060128;28;20212;-76
2023/07/03 00:50:41;;;;;;;13.13;7.20;;;;;;;18.57;90.43;96509.97;5050073;28;20238;-77
2023/07/03 00:54:04;;;;;;;10.00;6.93;;;;;;;18.36;90.38;96479.50;5034580;28;20575;-77
2023/07/03 00:57:25;;;;;;;12.60;6.93;;;;;;;18.74;89.62;96505.91;5065966;28;20188;-77
2023/07/03 01:00:47;;;;;;;10.73;6.57;;;;;;;18.74;89.48;96508.50;5033265;28;20354;-76
2023/07/03 01:04:09;;;;;;;11.17;6.33;;;;;;;18.45;89.89;96512.81;5048080;28;20194;-76
2023/07/03 01:07:30;;;;;;;12.13;7.07;;;;;;;18.55;89.28;96506.66;5066488;28;20203;-77
2023/07/03 01:10:51;;;;;;;10.30;7.57;;;;;;;18.50;88.80;96510.63;5047819;28;20262;-76
2023/07/03 01:14:12;;;;;;;14.07;7.70;;;;;;;18.67;89.48;96510.84;5065316;28;20770;-79
2023/07/03 01:17:33;;;;;;;11.37;7.03;;;;;;;18.65;89.04;96506.69;5030900;28;20703;-77
2023/07/03 01:20:59;;;;;;;11.03;7.30;;;;;;;18.35;90.30;96514.53;5065884;28;20290;-77
2023/07/03 01:24:21;;;;;;;12.13;8.03;;;;;;;18.20;91.23;96505.31;5048342;28;20207;-80
2023/07/03 01:27:43;;;;;;;13.77;7.67;;;;;;;18.39;90.53;96510.69;5065678;28;20530;-77
2023/07/03 01:31:07;;;;;;;13.07;7.87;;;;;;;18.30;90.88;96514.91;5047541;28;20233;-77
2023/07/03 01:34:28;;;;;;;8.30;6.47;;;;;;;18.63;89.25;96512.06;5049837;28;20698;-80
2023/07/03 01:37:50;;;;;;;12.43;6.60;;;;;;;19.01;87.70;96516.63;5017331;28;20204;-77
2023/07/03 01:41:11;;;;;;;13.70;7.00;;;;;;;19.15;86.25;96526.72;5047785;28;20203;-79
2023/07/03 01:44:32;;;;;;;11.07;6.60;;;;;;;19.31;85.39;96521.78;5030474;28;20240;-77
2023/07/03 01:47:53;;;;;;;8.07;6.43;;;;;;;19.32;85.13;96526.06;5047002;28;20204;-79
2023/07/03 01:51:14;;;;;;;10.93;7.03;;;;;;;19.20;85.36;96527.16;5047529;28;20246;-79
2023/07/03 01:54:50;;;;;;;13.13;7.10;;;;;;;18.94;87.00;96525.16;5047913;28;20211;-78
2023/07/03 01:58:19;;;;;;;15.63;7.23;;;;;;;18.67;88.29;96533.59;5064651;28;20286;-79
2023/07/03 02:01:41;;;;;;;12.30;6.63;;;;;;;18.87;87.55;96531.91;5032424;28;20232;-75
2023/07/03 02:04:23;;;;;;;11.33;7.07;;;;;;;18.51;88.87;96530.63;5064895;28;20663;-79
2023/07/03 02:07:43;;;;;;;9.73;7.60;;;;;;;18.47;89.31;96529.25;5065573;28;20192;-78
2023/07/03 02:11:04;;;;;;;12.20;7.73;;;;;;;18.58;89.14;96535.25;5064810;28;20231;-78
2023/07/03 02:14:30;;;;;;;15.67;7.50;;;;;;;18.47;89.33;96540.56;5030126;28;20231;-76
2023/07/03 02:17:53;;;;;;;12.20;7.10;;;;;;;18.54;89.25;96522.53;5032812;28;20205;-80
2023/07/03 02:21:35;;;;;;;15.33;7.80;;;;;;;18.51;88.81;96525.41;5025425;28;20204;-77
2023/07/03 02:24:56;;;;;;;11.97;7.07;;;;;;;18.11;88.52;96467.66;5049115;28;20199;-76
2023/07/03 02:28:18;;;;;;;10.97;6.47;;;;;;;18.71;88.73;96545.53;5050689;28;20202;-80
2023/07/03 02:31:39;;;;;;;11.43;7.50;;;;;;;18.62;88.27;96556.78;5049618;28;20286;-80
2023/07/03 02:35:00;;;;;;;14.90;8.20;;;;;;;18.36;90.54;96555.53;5068332;28;20203;-78
2023/07/03 02:38:21;;;;;;;14.57;7.60;;;;;;;18.40;89.10;96562.97;5050915;28;20208;-81
2023/07/03 02:41:42;;;;;;;15.80;7.30;;;;;;;18.50;89.28;96565.72;5050831;28;20298;-78
2023/07/03 02:45:03;;;;;;;13.57;7.00;;;;;;;18.65;87.77;96569.63;5033576;28;20199;-82
2023/07/03 02:48:24;;;;;;;14.03;8.00;;;;;;;18.43;89.08;96569.75;5067650;28;20680;-78
2023/07/03 02:51:47;;;;;;;12.43;7.27;;;;;;;17.98;91.00;96579.69;5033871;28;20238;-75
2023/07/03 02:55:12;;;;;;;13.43;8.03;;;;;;;17.98;91.13;96578.84;5051625;28;20200;-78
2023/07/03 02:58:33;;;;;;;14.73;8.63;;;;;;;18.07;91.08;96573.69;5052355;28;20227;-81
2023/07/03 03:02:00;;;;;;;10.70;6.63;;;;;;;18.19;90.68;96575.28;5050674;28;20309;-79
2023/07/03 03:05:21;;;;;;;11.00;7.67;;;;;;;18.04;92.14;96578.34;5050041;28;20382;-76
2023/07/03 03:08:42;;;;;;;11.57;7.00;;;;;;;18.25;92.40;96577.41;5050375;28;20196;-78
2023/07/03 03:12:06;;;;;;;12.23;7.20;;;;;;;18.30;92.12;96577.03;5050145;28;20239;-79
2023/07/03 03:15:27;;;;;;;12.53;7.27;;;;;;;18.59;90.60;96570.16;5049764;28;20203;-78
2023/07/03 03:18:50;;;;;;;12.47;6.93;;;;;;;18.47;91.07;96576.44;5032975;28;20208;-77
2023/07/03 03:22:11;;;;;;;11.27;7.30;;;;;;;18.50;90.11;96563.94;5032974;28;20262;-78
2023/07/03 03:25:33;;;;;;;17.57;7.90;;;;;;;18.64;89.47;96587.19;5050800;28;20200;-80
2023/07/03 03:28:54;;;;;;;11.67;7.33;;;;;;;18.51;89.67;96583.09;5067854;28;20203;-74
2023/07/03 03:32:15;;;;;;;11.97;7.40;;;;;;;18.52;89.57;96582.97;5047027;28;20275;-75
2023/07/03 03:35:37;;;;;;;10.97;6.73;;;;;;;18.46;89.46;96593.16;5037270;28;20274;-79
2023/07/03 03:38:58;;;;;;;12.80;7.43;;;;;;;18.41;90.00;96596.13;5037419;28;20227;-80
2023/07/03 03:42:19;;;;;;;12.47;7.67;;;;;;;18.39;89.83;96598.03;5016521;28;20197;-78
2023/07/03 03:45:40;;;;;;;12.47;8.23;;;;;;;18.66;89.06;96587.03;5047795;28;20295;-77
2023/07/03 03:49:02;;;;;;;11.33;6.97;;;;;;;18.95;87.75;96606.38;5033993;28;20198;-75
2023/07/03 03:52:23;;;;;;;10.03;7.00;;;;;;;19.52;85.60;96608.38;5021072;28;20929;-77
2023/07/03 03:55:44;;;;;;;11.30;6.97;;;;;;;19.91;83.61;96612.72;5039225;28;20653;-75
2023/07/03 03:59:08;;;;;;;14.47;9.53;;;;;;;20.40;81.61;96606.53;5043010;28;20255;-78
2023/07/03 04:02:29;;;;;;;14.73;8.23;;;;;;;20.74;80.15;96605.06;5023014;28;20323;-79
2023/07/03 04:05:49;;;;;;;13.13;7.93;;;;;;;21.14;78.74;96612.72;5056078;28;20203;-77
2023/07/03 04:09:11;;;;;;;10.30;7.23;;;;;;;21.20;77.64;96611.28;5055167;28;20289;-76
2023/07/03 04:12:31;;;;;;;11.17;7.00;;;;;;;21.44;76.73;96616.84;5047500;28;20196;-77
2023/07/03 04:15:52;;;;;;;12.30;7.00;;;;;;;21.66;75.84;96619.06;5047497;28;20198;-79
2023/07/03 04:19:18;;;;;;;10.40;6.80;;;;;;;21.86;75.72;96623.28;5045074;28;20288;-77
2023/07/03 04:22:39;;;;;;;8.87;6.80;;;;;;;22.23;74.03;96612.59;5046498;28;20190;-80
2023/07/03 04:26:00;;;;;;;12.87;7.50;;;;;;;22.46;72.64;96625.13;5047846;28;20239;-78
2023/07/03 04:29:21;;;;;;;15.23;7.30;;;;;;;22.67;72.43;96616.91;5046490;28;20395;-81
2023/07/03 04:32:42;;;;;;;12.03;7.83;;;;;;;22.76;70.81;96612.50;5026961;28;20201;-79
2023/07/03 04:36:03;;;;;;;11.43;6.97;;;;;;;22.70;71.51;96613.97;5045030;28;20275;-76
2023/07/03 04:39:24;;;;;;;15.33;7.90;;;;;;;22.20;73.50;96604.97;5043238;28;20316;-77
2023/07/03 04:42:45;;;;;;;12.00;6.97;;;;;;;22.76;72.68;96638.91;5028494;28;20295;-76
2023/07/03 04:46:06;;;;;;;11.47;7.83;;;;;;;22.27;74.05;96612.13;5046487;28;20212;-77
2023/07/03 04:49:29;;;;;;;11.13;7.40;;;;;;;22.29;74.80;96635.72;5045817;28;20714;-79
2023/07/03 04:52:50;;;;;;;13.77;7.80;;;;;;;22.85;74.28;96628.28;5065849;28;20208;-78
2023/07/03 04:56:11;;;;;;;14.90;8.23;;;;;;;22.58;74.50;96626.59;5048234;28;20200;-78
2023/07/03 04:59:32;;;;;;;12.47;7.27;;;;;;;23.13;71.92;96636.84;5046722;28;20577;-75
2023/07/03 05:02:52;;;;;;;13.47;9.00;;;;;;;22.97;72.88;96636.75;5045263;28;20562;-76
2023/07/03 05:06:13;;;;;;;21.23;13.17;;;;;;;23.14;72.48;96654.34;5045772;28;20198;-77
2023/07/03 05:09:34;;;;;;;17.27;11.70;;;;;;;23.05;73.24;96644.72;5044355;28;20671;-74
2023/07/03 05:12:54;;;;;;;12.23;8.47;;;;;;;23.50;71.66;96649.75;5045559;28;20194;-76
2023/07/03 05:16:16;;;;;;;16.10;8.83;;;;;;;24.01;69.13;96654.88;5045937;28;20202;-76
2023/07/03 05:19:36;;;;;;;11.33;7.93;;;;;;;24.42;68.02;96653.16;5026799;28;20899;-74
2023/07/03 05:22:58;;;;;;;13.50;9.60;;;;;;;24.33;67.68;96660.28;5045437;28;20199;-80
2023/07/03 05:26:18;;;;;;;22.07;11.03;;;;;;;23.93;69.67;96644.28;5030836;28;20224;-76
2023/07/03 05:29:40;;;;;;;12.17;7.57;;;;;;;23.63;69.96;96664.19;5045668;28;20196;-76
2023/07/03 05:33:00;;;;;;;12.10;7.50;;;;;;;23.45;70.68;96666.13;5029688;28;20584;-79
2023/07/03 05:36:21;;;;;;;12.60;8.33;;;;;;;23.80;69.96;96662.44;5036734;28;21396;-76
2023/07/03 05:39:46;;;;;;;11.23;7.20;;;;;;;23.93;69.94;96663.63;5045327;28;20219;-75
2023/07/03 05:43:11;;;;;;;11.50;8.60;;;;;;;23.75;71.73;96665.56;5046166;28;20205;-78
2023/07/03 05:46:32;;;;;;;11.93;7.67;;;;;;;22.90;75.04;96662.94;5008739;28;20644;-75
2023/07/03 05:49:53;;;;;;;19.87;11.93;;;;;;;23.60;72.30;96663.66;5026587;28;20207;-76
2023/07/03 05:53:14;;;;;;;38.57;20.27;;;;;;;23.73;72.22;96669.34;5012437;28;20207;-76
2023/07/03 05:56:35;;;;;;;12.70;8.17;;;;;;;23.67;72.40;96668.19;5012972;28;20303;-76
2023/07/03 05:59:55;;;;;;;10.63;7.37;;;;;;;23.71;72.57;96674.81;5046982;28;20217;-75
2023/07/03 06:03:18;;;;;;;12.93;8.20;;;;;;;23.95;72.06;96672.22;5031317;28;20197;-76
2023/07/03 06:06:39;;;;;;;16.70;10.87;;;;;;;23.94;71.38;96670.59;5052040;28;20194;-77
2023/07/03 06:10:02;;;;;;;10.70;8.07;;;;;;;24.86;68.21;96667.75;5050977;28;20271;-77
2023/07/03 06:13:23;;;;;;;12.70;8.10;;;;;;;25.15;66.27;96672.50;5035481;28;20213;-78
2023/07/03 06:16:44;;;;;;;18.10;8.80;;;;;;;24.71;67.55;96674.69;5048226;28;20211;-76
2023/07/03 06:20:05;;;;;;;13.80;8.30;;;;;;;24.71;67.38;96678.16;5047851;28;20344;-76
2023/07/03 06:23:26;;;;;;;14.53;9.93;;;;;;;24.98;66.35;96675.19;5030230;28;20300;-75
2023/07/03 06:26:47;;;;;;;16.17;9.07;;;;;;;25.61;65.39;96680.53;5030266;28;20205;-76
2023/07/03 06:30:08;;;;;;;15.17;9.63;;;;;;;26.01;63.08;96674.19;5028243;28;20236;-80
2023/07/03 06:33:31;;;;;;;17.57;8.73;;;;;;;26.34;61.64;96685.47;5015191;28;20242;-76
2023/07/03 06:36:53;;;;;;;16.10;9.80;;;;;;;26.42;61.46;96685.44;5047696;28;20200;-76
2023/07/03 06:40:15;;;;;;;15.33;9.20;;;;;;;26.02;61.89;96690.94;5013815;28;20202;-76
2023/07/03 06:43:37;;;;;;;17.83;12.00;;;;;;;26.23;61.62;96678.75;5048417;28;21033;-77
2023/07/03 06:46:57;;;;;;;15.10;9.50;;;;;;;26.02;61.41;96667.06;5047593;28;20772;-79
2023/07/03 06:50:18;;;;;;;15.57;11.70;;;;;;;25.93;62.28;96687.50;5012676;28;20226;-80
2023/07/03 06:53:39;;;;;;;20.87;14.80;;;;;;;26.10;61.51;96690.94;5047290;28;20862;-77
2023/07/03 06:57:00;;;;;;;12.60;10.27;;;;;;;26.14;62.94;96692.25;5047856;28;20224;-77
2023/07/03 07:00:22;;;;;;;16.13;10.20;;;;;;;25.62;63.37;96690.13;5048152;28;20197;-75
2023/07/03 07:03:42;;;;;;;14.57;10.67;;;;;;;26.16;61.96;96692.91;5029447;28;20197;-74
2023/07/03 07:07:03;;;;;;;19.57;12.53;;;;;;;26.63;61.36;96705.03;5029214;28;20205;-79
2023/07/03 07:10:24;;;;;;;22.03;13.43;;;;;;;26.02;63.27;96698.91;5032839;28;20245;-75
2023/07/03 07:13:45;;;;;;;17.60;12.10;;;;;;;26.28;61.57;96702.13;5048464;28;20272;-76
2023/07/03 07:17:08;;;;;;;20.87;12.63;;;;;;;26.27;61.16;96701.31;5029316;28;20220;-77
2023/07/03 07:20:29;;;;;;;19.23;13.13;;;;;;;26.32;60.59;96693.63;5046105;28;20637;-80
2023/07/03 07:23:52;;;;;;;16.67;11.80;;;;;;;26.27;60.96;96698.66;5014631;28;20292;-76
2023/07/03 07:27:13;;;;;;;19.17;12.17;;;;;;;26.76;59.84;96704.47;4995390;28;20232;-75
2023/07/03 07:30:34;;;;;;;17.60;13.23;;;;;;;26.84;60.08;96706.22;5009327;28;20238;-74
2023/07/03 07:33:55;;;;;;;21.53;12.33;;;;;;;27.32;59.13;96711.13;5026568;28;20192;-78
2023/07/03 07:37:17;;;;;;;18.60;13.40;;;;;;;27.30;58.23;96708.66;5026618;28;20692;-80
2023/07/03 07:40:38;;;;;;;18.77;14.70;;;;;;;26.91;59.56;96707.19;5027115;28;20198;-76
2023/07/03 07:43:59;;;;;;;17.00;12.80;;;;;;;26.92;58.86;96709.66;5011220;28;20286;-76
2023/07/03 07:47:19;;;;;;;20.23;12.73;;;;;;;26.60;60.20;96705.38;5027040;28;20195;-75
2023/07/03 07:50:40;;;;;;;18.30;13.10;;;;;;;26.87;59.52;96714.69;5008322;28;20234;-77
2023/07/03 07:54:01;;;;;;;16.80;13.00;;;;;;;27.17;58.05;96712.91;5026410;28;20203;-79
2023/07/03 07:57:23;;;;;;;19.30;13.20;;;;;;;27.04;58.74;96712.69;5011655;28;20206;-77
2023/07/03 08:00:43;;;;;;;20.13;13.40;;;;;;;27.47;58.44;96711.16;5026185;28;20229;-80
2023/07/03 08:04:05;;;;;;;20.17;13.80;;;;;;;27.47;57.61;96724.47;5007627;28;20198;-77
2023/07/03 08:07:26;;;;;;;18.47;13.30;;;;;;;27.32;57.95;96719.09;5025858;28;20286;-78
2023/07/03 08:10:47;;;;;;;18.67;13.67;;;;;;;27.23;58.06;96715.69;5026423;28;20785;-79
2023/07/03 08:14:08;;;;;;;21.00;14.57;;;;;;;27.53;59.32;96723.72;5025267;28;20319;-80
2023/07/03 08:17:29;;;;;;;18.27;13.77;;;;;;;27.60;59.20;96722.81;5008191;28;20195;-81
2023/07/03 08:19:57;;;;;;;16.97;13.37;;;;;;;27.11;59.75;96733.09;5045391;28;20386;-74
2023/07/03 08:23:05;;;;;;;18.17;13.67;;;;;;;27.16;59.55;96730.69;5028574;28;20202;-74
2023/07/03 08:26:30;;;;;;;19.40;13.80;;;;;;;27.06;59.84;96737.28;5039325;28;20199;-74
2023/07/03 08:29:10;;;;;;;20.67;13.53;;;;;;;27.22;59.63;96729.97;5025019;28;20634;-75
2023/07/03 08:32:19;;;;;;;17.63;14.30;;;;;;;27.58;58.08;96716.84;5026577;28;20612;-76
2023/07/03 08:35:40;;;;;;;22.63;14.60;;;;;;;28.34;55.76;96742.25;5007736;28;20207;-75
2023/07/03 08:39:02;;;;;;;17.57;13.43;;;;;;;28.10;57.45;96730.06;5008751;28;20293;-81
2023/07/03 08:42:23;;;;;;;17.17;13.03;;;;;;;27.82;56.62;96726.41;5026948;28;20237;-75
2023/07/03 08:45:31;;;;;;;19.70;15.10;;;;;;;28.40;56.46;96728.97;5007889;28;20241;-74
2023/07/03 08:48:17;;;;;;;17.57;14.27;;;;;;;28.46;55.95;96727.41;5025338;28;20253;-74
2023/07/03 08:51:24;;;;;;;20.63;14.23;;;;;;;28.69;55.47;96728.91;5007637;28;20681;-76
2023/07/03 08:54:51;;;;;;;15.13;13.17;;;;;;;28.54;55.24;96733.44;5010420;28;20186;-75
2023/07/03 08:57:33;;;;;;;19.63;14.13;;;;;;;28.75;52.86;96729.97;5008562;28;20204;-76
2023/07/03 09:00:10;;;;;;;20.60;15.53;;;;;;;28.47;54.73;96727.22;5029958;28;20222;-74
2023/07/03 09:02:42;;;;;;;17.27;14.63;;;;;;;28.34;54.96;96740.38;5045861;28;20941;-74
2023/07/03 09:05:54;;;;;;;16.27;14.57;;;;;;;28.21;55.10;96728.75;5052041;28;20673;-72
2023/07/03 09:08:45;;;;;;;15.60;13.27;;;;;;;28.15;54.79;96731.16;5062531;28;20280;-74
2023/07/03 09:11:17;;;;;;;17.17;13.50;;;;;;;28.11;54.64;96735.19;5035564;28;20338;-74
2023/07/03 09:13:51;;;;;;;18.27;14.53;;;;;;;28.37;54.28;96717.88;5047452;28;20193;-77
2023/07/03 09:16:22;;;;;;;15.90;13.70;;;;;;;28.28;52.93;96711.00;5046418;28;20193;-78
2023/07/03 09:18:58;;;;;;;18.10;13.37;;;;;;;28.42;53.31;96736.81;5065950;28;20209;-76
2023/07/03 09:21:28;;;;;;;16.10;13.43;;;;;;;28.48;52.91;96736.84;5047288;28;20197;-75
2023/07/03 09:24:03;;;;;;;14.47;12.97;;;;;;;28.46;52.83;96740.75;5047329;28;20643;-76
2023/07/03 09:27:00;;;;;;;19.03;15.20;;;;;;;28.50;52.64;96731.34;5065541;28;20196;-75
2023/07/03 09:29:31;;;;;;;14.37;12.87;;;;;;;28.42;51.14;96734.94;5028989;28;20239;-74
2023/07/03 09:32:03;;;;;;;14.00;12.20;;;;;;;28.38;51.83;96731.00;5065846;28;20620;-73
2023/07/03 09:34:59;;;;;;;14.53;12.80;;;;;;;27.96;52.41;96736.25;5049081;28;20203;-78
2023/07/03 09:37:30;;;;;;;14.97;11.93;;;;;;;27.53;53.68;96721.06;5018781;28;20235;-79
2023/07/03 09:40:00;;;;;;;16.33;14.57;;;;;;;27.71;53.38;96734.84;5052054;28;20225;-78
2023/07/03 09:42:32;;;;;;;15.43;13.30;;;;;;;27.36;53.66;96739.88;5050805;28;20208;-75
2023/07/03 09:44:59;;;;;;;14.20;12.67;;;;;;;27.13;54.38;96739.03;5069751;28;20193;-76
2023/07/03 09:47:32;;;;;;;17.87;15.07;;;;;;;27.44;53.98;96735.47;5068959;28;20200;-82
2023/07/03 09:50:08;;;;;;;16.30;13.30;;;;;;;27.46;52.96;96736.09;5069368;28;20196;-77
2023/07/03 09:52:43;;;;;;;13.40;12.00;;;;;;;27.28;53.08;96739.91;5051349;28;20677;-73
2023/07/03 09:55:29;;;;;;;15.93;13.17;;;;;;;27.76;51.96;96730.59;5068579;28;20213;-79
2023/07/03 09:57:57;;;;;;;15.20;12.07;;;;;;;28.27;51.21;96728.84;5069696;28;20713;-73
2023/07/03 10:00:26;;;;;;;13.43;12.03;;;;;;;28.32;50.26;96721.09;5068789;28;20816;-73
2023/07/03 10:02:57;;;;;;;13.97;11.43;;;;;;;28.10;50.80;96727.41;5050908;28;20208;-73
2023/07/03 10:05:32;;;;;;;15.90;12.57;;;;;;;28.46;51.68;96730.09;5069360;28;20209;-74
2023/07/03 10:08:06;;;;;;;13.30;11.93;;;;;;;28.42;50.66;96729.63;5068685;28;20193;-73
2023/07/03 10:10:35;;;;;;;14.73;12.20;;;;;;;28.53;50.61;96733.63;5051194;28;20712;-73
2023/07/03 10:13:13;;;;;;;14.63;11.73;;;;;;;28.41;49.36;96727.16;5068340;28;20249;-73
2023/07/03 10:15:42;;;;;;;13.53;12.03;;;;;;;28.37;49.89;96723.22;5034050;28;20614;-73
2023/07/03 10:18:19;;;;;;;11.87;10.63;;;;;;;28.34;47.17;96735.06;5068871;28;20200;-73
2023/07/03 10:20:51;;;;;;;16.07;11.23;;;;;;;28.32;47.63;96726.44;5068451;28;20189;-78
2023/07/03 10:23:24;;;;;;;13.70;10.90;;;;;;;28.74;48.00;96736.34;5051727;28;20201;-77
2023/07/03 10:25:59;;;;;;;12.33;11.03;;;;;;;29.04;46.92;96734.38;5067739;28;20197;-74
2023/07/03 10:28:33;;;;;;;12.23;11.03;;;;;;;29.03;47.52;96743.38;5051025;28;20201;-74
2023/07/03 10:31:04;;;;;;;13.97;11.83;;;;;;;29.31;46.22;96750.44;5050868;28;20233;-76
2023/07/03 10:33:42;;;;;;;15.83;11.43;;;;;;;29.20;47.96;96752.81;5034356;28;20196;-73
2023/07/03 10:36:19;;;;;;;16.03;10.83;;;;;;;28.79;52.80;96755.28;5069195;28;20197;-75
2023/07/03 10:39:21;;;;;;;14.10;10.67;;;;;;;28.44;54.42;96745.44;5050344;28;20201;-75
2023/07/03 10:41:57;;;;;;;24.27;12.03;;;;;;;27.87;61.18;96747.94;5050477;28;20294;-74
2023/07/03 10:44:32;;;;;;;19.17;13.33;;;;;;;27.42;66.42;96753.44;5068520;28;20287;-74
2023/07/03 10:47:21;;;;;;;19.13;12.73;;;;;;;27.02;67.17;96752.75;5048689;28;20248;-72
2023/07/03 10:49:51;;;;;;;18.17;13.47;;;;;;;26.76;68.26;96746.16;5068967;28;20201;-72
2023/07/03 10:52:33;;;;;;;19.00;13.67;;;;;;;26.62;71.54;96745.06;5050152;28;20237;-73
2023/07/03 10:55:03;;;;;;;20.47;14.27;;;;;;;26.80;72.18;96750.94;5068469;28;20220;-74
2023/07/03 10:57:46;;;;;;;18.20;14.00;;;;;;;26.79;70.15;96736.00;5050877;28;20768;-78
2023/07/03 11:00:23;;;;;;;18.73;14.90;;;;;;;27.07;70.82;96723.81;5067913;28;20251;-75
2023/07/03 11:03:09;;;;;;;19.70;15.07;;;;;;;27.21;70.26;96720.34;5068811;28;20609;-77
2023/07/03 11:05:44;;;;;;;16.13;12.60;;;;;;;27.27;67.59;96735.59;5046848;28;20256;-74
2023/07/03 11:08:23;;;;;;;16.87;13.93;;;;;;;27.52;69.21;96732.72;5033396;28;20608;-75
2023/07/03 11:11:02;;;;;;;16.37;13.17;;;;;;;27.74;67.74;96737.16;5050264;28;20239;-75
2023/07/03 11:13:59;;;;;;;14.07;12.43;;;;;;;27.85;65.53;96736.66;5049740;28;20209;-76
2023/07/03 11:17:04;;;;;;;14.80;11.53;;;;;;;27.99;60.40;96751.81;5068034;28;20206;-74
2023/07/03 11:19:32;;;;;;;12.67;11.00;;;;;;;28.13;59.34;96749.16;5040845;28;20590;-75
2023/07/03 11:22:16;;;;;;;14.67;10.47;;;;;;;28.33;59.25;96753.91;5049567;28;20197;-72
2023/07/03 11:25:09;;;;;;;10.17;9.17;;;;;;;28.62;52.43;96741.38;5068151;28;20189;-73
2023/07/03 11:27:43;;;;;;;15.20;9.70;;;;;;;28.74;52.22;96752.34;5049784;28;20209;-74
2023/07/03 11:30:16;;;;;;;14.00;10.93;;;;;;;28.93;53.59;96749.06;5049361;28;20197;-73
2023/07/03 11:32:45;;;;;;;12.87;10.20;;;;;;;28.97;53.50;96742.31;5068503;28;20186;-73
2023/07/03 11:35:14;;;;;;;11.20;9.80;;;;;;;29.04;49.81;96742.38;5067408;28;20211;-72
2023/07/03 11:37:49;;;;;;;13.27;10.83;;;;;;;29.18;51.90;96749.50;5067793;28;20654;-74
2023/07/03 11:40:35;;;;;;;10.30;9.17;;;;;;;29.44;50.89;96753.22;5049939;28;20579;-73
2023/07/03 11:43:28;;;;;;;17.80;9.70;;;;;;;29.78;50.07;96747.09;5048983;28;20193;-76
2023/07/03 11:45:56;;;;;;;15.10;9.23;;;;;;;29.87;49.28;96751.25;5067965;28;20632;-75
2023/07/03 11:48:37;;;;;;;10.63;9.20;;;;;;;29.79;50.86;96748.75;5067304;28;20572;-75
2023/07/03 11:51:16;;;;;;;10.33;9.30;;;;;;;29.63;50.71;96751.69;5066877;28;20323;-75
2023/07/03 11:53:52;;;;;;;21.77;10.77;;;;;;;29.47;51.66;96749.34;5067339;28;20197;-75
2023/07/03 11:56:41;;;;;;;11.97;9.77;;;;;;;29.30;51.13;96747.97;5048734;28;20280;-74
2023/07/03 11:59:24;;;;;;;10.83;9.23;;;;;;;29.38;49.91;96745.16;5048724;28;20647;-74
2023/07/03 12:02:13;;;;;;;12.73;10.50;;;;;;;29.68;49.75;96733.22;5049078;28;20703;-77
2023/07/03 12:04:51;;;;;;;10.77;8.40;;;;;;;29.67;52.27;96728.94;5032283;28;20254;-74
2023/07/03 12:07:21;;;;;;;11.10;8.97;;;;;;;29.87;51.90;96737.06;5032925;28;20199;-75
2023/07/03 12:09:50;;;;;;;14.50;9.57;;;;;;;30.06;51.19;96734.50;5066416;28;20197;-75
2023/07/03 12:12:28;;;;;;;14.73;9.57;;;;;;;30.32;50.06;96728.47;5066997;28;20262;-75
2023/07/03 12:14:57;;;;;;;15.60;12.27;;;;;;;30.54;49.23;96730.81;5067055;28;20234;-77
2023/07/03 12:17:30;;;;;;;12.67;9.27;;;;;;;30.29;48.60;96734.19;5066819;28;20633;-76
2023/07/03 12:20:18;;;;;;;8.80;7.70;;;;;;;29.59;50.15;96737.09;5048926;28;20272;-75
2023/07/03 12:22:53;;;;;;;10.70;8.80;;;;;;;30.05;49.44;96735.53;5066317;28;20616;-74
2023/07/03 12:25:23;;;;;;;9.57;8.63;;;;;;;30.17;48.87;96717.91;5067011;28;20197;-73
2023/07/03 12:27:52;;;;;;;10.97;9.03;;;;;;;30.44;48.36;96733.03;5066843;28;20603;-78
2023/07/03 12:30:23;;;;;;;10.53;9.10;;;;;;;30.32;48.50;96729.31;5066208;28;20185;-73
2023/07/03 12:32:52;;;;;;;13.53;9.90;;;;;;;30.16;48.46;96734.13;5048537;28;20270;-73
2023/07/03 12:35:22;;;;;;;10.57;9.13;;;;;;;30.05;50.14;96735.53;5048265;28;20200;-73
2023/07/03 12:37:53;;;;;;;11.17;9.67;;;;;;;29.83;50.58;96720.63;5068130;28;20221;-73
2023/07/03 12:40:22;;;;;;;14.77;9.70;;;;;;;29.96;50.62;96728.72;5066762;28;20284;-75
2023/07/03 12:42:52;;;;;;;13.73;10.17;;;;;;;29.99;50.43;96716.78;5066462;28;20198;-74
2023/07/03 12:45:24;;;;;;;11.33;8.77;;;;;;;30.12;49.09;96714.19;5066446;28;20205;-77
2023/07/03 12:48:08;;;;;;;10.47;8.77;;;;;;;30.02;49.69;96722.56;5066416;28;20284;-76
2023/07/03 12:50:55;;;;;;;10.20;8.83;;;;;;;29.79;49.10;96719.38;5048523;28;20199;-75
2023/07/03 12:53:29;;;;;;;11.13;9.17;;;;;;;29.67;50.07;96719.09;5048145;28;20204;-74
2023/07/03 12:56:06;;;;;;;13.33;8.73;;;;;;;29.73;49.03;96718.31;5066005;28;20195;-74
2023/07/03 12:58:35;;;;;;;16.87;10.60;;;;;;;29.66;49.18;96717.41;5031619;28;20639;-74
2023/07/03 13:01:06;;;;;;;12.50;9.80;;;;;;;29.59;49.83;96713.06;5047062;28;20247;-75
2023/07/03 13:03:43;;;;;;;10.50;9.40;;;;;;;29.46;49.68;96719.16;5066288;28;20200;-74
2023/07/03 13:06:26;;;;;;;12.00;8.70;;;;;;;29.64;48.25;96719.47;5047340;28;20206;-72
2023/07/03 13:08:54;;;;;;;9.70;8.50;;;;;;;29.71;47.55;96719.50;5064716;28;20197;-74
2023/07/03 13:12:05;;;;;;;9.80;8.37;;;;;;;29.92;47.03;96716.78;5047754;28;20239;-73
2023/07/03 13:15:53;;;;;;;14.30;9.10;;;;;;;29.85;47.84;96715.91;5064619;28;20253;-73
2023/07/03 13:19:16;;;;;;;10.63;8.80;;;;;;;29.89;46.61;96698.47;5046402;28;20635;-76
2023/07/03 13:22:37;;;;;;;9.80;8.80;;;;;;;29.83;47.39;96707.28;5046997;28;20204;-74
2023/07/03 13:26:02;;;;;;;13.13;9.50;;;;;;;29.93;48.33;96715.75;5065012;28;20201;-76
2023/07/03 13:29:12;;;;;;;9.23;8.17;;;;;;;29.66;44.84;96719.25;5046336;28;20663;-75
2023/07/03 13:32:35;;;;;;;10.53;8.53;;;;;;;29.61;45.95;96719.03;5063999;28;20229;-82
2023/07/03 13:35:59;;;;;;;9.43;8.37;;;;;;;29.59;44.54;96710.41;5064537;28;20201;-74
2023/07/03 13:39:20;;;;;;;9.57;8.30;;;;;;;29.61;44.72;96713.69;5046536;28;20320;-77
2023/07/03 13:42:41;;;;;;;8.27;7.07;;;;;;;29.26;44.11;96678.16;5065030;28;20201;-73
2023/07/03 13:46:01;;;;;;;10.67;7.77;;;;;;;29.70;45.13;96701.81;5029740;28;20258;-75
2023/07/03 13:48:42;;;;;;;8.43;7.50;;;;;;;29.68;44.21;96703.88;5064154;28;20208;-76
2023/07/03 13:51:10;;;;;;;10.00;7.07;;;;;;;29.52;43.16;96691.66;5031744;28;20315;-76
2023/07/03 13:53:38;;;;;;;10.27;7.93;;;;;;;29.67;44.72;96704.91;5065554;28;20719;-77
2023/07/03 13:57:05;;;;;;;7.77;6.97;;;;;;;29.57;43.87;96701.75;5033620;28;20621;-75
2023/07/03 14:00:27;;;;;;;8.87;7.60;;;;;;;29.50;45.05;96706.22;5047000;28;20228;-78
2023/07/03 14:03:48;;;;;;;8.30;7.50;;;;;;;29.57;45.68;96717.78;5063939;28;20627;-73
2023/07/03 14:07:09;;;;;;;9.50;7.43;;;;;;;29.38;44.01;96711.28;5048625;28;20679;-75
2023/07/03 14:10:30;;;;;;;8.67;7.53;;;;;;;29.69;45.48;96708.19;5064629;28;20765;-75
2023/07/03 14:13:51;;;;;;;7.93;6.97;;;;;;;29.80;45.74;96707.66;5032367;28;20225;-77
2023/07/03 14:17:13;;;;;;;9.73;7.67;;;;;;;29.84;44.69;96711.59;5032478;28;20292;-74